Terminal Aerodrome Forecast
Issued by NWS Sterling, VA

Current Version | Previous Version | Text Only | Print | Product List | Glossary Off
Versions: 1 2 3 4 5 6 7 8 9 10 11 12 13 14 15 16 17 18 19 20 21 22 23 24 25 26 27 28

000
FTUS41 KLWX 232000 AAB
TAFIAD
TAF AMD
KIAD 232038Z 2321/2424 00000KT 1SM -DZ BR OVC003
     FM232300 00000KT 5SM -DZ BR OVC003
     FM240200 VRB03KT 6SM -RA BR OVC003
     FM241100 VRB03KT 3SM RA OVC003
     FM241400 15004KT 3SM RA OVC008
     FM242200 17008KT 3SM RA OVC008
     FM242300 17009KT 6SM SHRA OVC008 WS020/19040KT=

USA.gov is the U.S. government's official web portal to all federal, state and local government web resources and services.